createdAt,value
2022-10-10T00:00:40.736Z,3.25
2022-10-10T00:02:13.503Z,3.28
2022-10-10T00:03:46.879Z,3.22
2022-10-10T00:05:19.594Z,3.67
2022-10-10T00:06:52.305Z,3.85
2022-10-10T00:08:24.067Z,3.90
2022-10-10T00:09:58.233Z,4.20
2022-10-10T00:11:31.264Z,4.05
2022-10-10T00:13:03.948Z,4.15
2022-10-10T00:14:36.724Z,4.20
2022-10-10T00:16:09.245Z,4.10
2022-10-10T00:17:43.812Z,3.92
2022-10-10T00:19:16.532Z,3.75
2022-10-10T00:20:50.993Z,3.80
2022-10-10T00:22:23.743Z,3.88
2022-10-10T00:23:56.468Z,3.85
2022-10-10T00:25:30.500Z,4.00
2022-10-10T00:27:02.261Z,4.03
2022-10-10T00:28:38.212Z,3.90
2022-10-10T00:30:10.968Z,4.28
2022-10-10T00:31:43.669Z,3.70
2022-10-10T00:33:16.464Z,4.05
2022-10-10T00:34:49.207Z,3.88
2022-10-10T00:36:21.933Z,4.38
2022-10-10T00:37:53.766Z,4.28
2022-10-10T00:39:26.521Z,4.10
2022-10-10T00:41:00.161Z,4.00
2022-10-10T00:42:32.877Z,4.10
2022-10-10T00:44:08.110Z,4.30
2022-10-10T00:45:42.534Z,4.13
2022-10-10T00:47:15.731Z,4.53
2022-10-10T00:48:48.549Z,4.55
2022-10-10T00:50:21.923Z,4.57
2022-10-10T00:51:58.278Z,4.95
2022-10-10T00:53:34.774Z,4.80
2022-10-10T00:55:08.114Z,5.00
2022-10-10T00:56:49.051Z,4.95
2022-10-10T00:58:22.632Z,4.95
2022-10-10T00:59:55.374Z,4.50
2022-10-10T01:01:27.343Z,4.75
2022-10-10T01:03:00.170Z,4.72
2022-10-10T01:04:35.604Z,4.20
2022-10-10T01:06:08.641Z,4.60
2022-10-10T01:07:42.222Z,5.22
2022-10-10T01:09:13.989Z,4.70
2022-10-10T01:11:00.509Z,4.45
2022-10-10T01:12:41.758Z,4.57
2022-10-10T01:14:27.077Z,4.32
2022-10-10T01:16:05.866Z,4.20
2022-10-10T01:17:45.333Z,4.20
2022-10-10T01:19:43.009Z,4.47
2022-10-10T01:21:25.608Z,4.30
2022-10-10T01:23:36.616Z,4.85
2022-10-10T01:25:20.673Z,4.32
2022-10-10T01:27:08.750Z,4.65
2022-10-10T01:28:49.604Z,4.90
2022-10-10T01:30:24.170Z,4.95
2022-10-10T01:32:00.727Z,5.00
2022-10-10T01:33:39.614Z,5.30
2022-10-10T01:35:22.513Z,4.90
2022-10-10T01:37:02.451Z,4.68
2022-10-10T01:38:42.053Z,4.97
2022-10-10T01:40:23.828Z,4.65
2022-10-10T01:42:02.339Z,4.80
2022-10-10T01:43:37.917Z,4.70
2022-10-10T01:45:11.186Z,5.05
2022-10-10T01:46:44.165Z,4.78
2022-10-10T01:48:20.087Z,4.95
2022-10-10T01:49:56.734Z,5.28
2022-10-10T01:51:49.370Z,4.95
2022-10-10T01:53:28.253Z,5.47
2022-10-10T01:55:16.623Z,5.20
2022-10-10T01:56:57.257Z,5.68
2022-10-10T01:58:50.760Z,5.75
2022-10-10T02:00:24.944Z,5.40
2022-10-10T02:02:06.223Z,6.10
2022-10-10T02:03:43.761Z,6.00
2022-10-10T02:05:21.458Z,5.35
2022-10-10T02:06:58.198Z,4.65
2022-10-10T02:08:35.778Z,4.82
2022-10-10T02:10:10.199Z,4.32
2022-10-10T02:11:43.565Z,4.30
2022-10-10T02:13:17.726Z,4.38
2022-10-10T02:14:54.924Z,4.10
2022-10-10T02:16:32.712Z,4.10
2022-10-10T02:18:07.876Z,4.32
2022-10-10T02:19:45.370Z,3.80
2022-10-10T02:21:18.602Z,4.10
2022-10-10T02:22:52.656Z,4.38
2022-10-10T02:24:26.151Z,4.60
2022-10-10T02:25:59.026Z,5.45
2022-10-10T02:27:36.468Z,4.97
2022-10-10T02:29:13.317Z,4.85
2022-10-10T02:30:49.185Z,5.15
2022-10-10T02:32:28.771Z,4.97
2022-10-10T02:34:08.824Z,4.85
2022-10-10T02:35:45.760Z,4.70
2022-10-10T02:37:19.084Z,4.60
2022-10-10T02:38:54.354Z,4.80
2022-10-10T02:40:29.763Z,4.57
2022-10-10T02:42:02.831Z,4.63
2022-10-10T02:43:36.337Z,4.53
2022-10-10T02:45:08.531Z,5.20
2022-10-10T02:46:41.831Z,4.68
2022-10-10T02:48:15.892Z,4.57
2022-10-10T02:49:49.137Z,4.90
2022-10-10T02:51:21.010Z,5.05
2022-10-10T02:52:54.058Z,5.03
2022-10-10T02:54:27.373Z,5.18
2022-10-10T02:56:00.082Z,4.95
2022-10-10T02:57:31.845Z,5.30
2022-10-10T02:59:04.549Z,5.05
2022-10-10T03:00:37.272Z,4.75
2022-10-10T03:02:10.039Z,5.03
2022-10-10T03:03:43.175Z,5.22
2022-10-10T03:05:16.184Z,5.10
2022-10-10T03:06:47.962Z,4.80
2022-10-10T03:08:20.747Z,4.95
2022-10-10T03:09:53.655Z,5.28
2022-10-10T03:11:26.407Z,5.20
2022-10-10T03:12:59.099Z,5.20
2022-10-10T03:14:31.856Z,4.60
2022-10-10T03:16:06.615Z,4.90
2022-10-10T03:17:39.398Z,4.82
2022-10-10T03:19:13.517Z,5.32
2022-10-10T03:20:46.496Z,5.40
2022-10-10T03:22:18.274Z,5.32
2022-10-10T03:23:51.242Z,5.55
2022-10-10T03:25:23.944Z,5.03
2022-10-10T03:26:56.640Z,4.95
2022-10-10T03:28:29.392Z,5.15
2022-10-10T03:30:02.138Z,5.53
2022-10-10T03:31:34.862Z,5.60
2022-10-10T03:33:08.394Z,5.55
2022-10-10T03:34:42.545Z,5.25
2022-10-10T03:36:15.361Z,5.97
2022-10-10T03:37:48.065Z,5.57
2022-10-10T03:39:20.771Z,6.00
2022-10-10T03:40:53.465Z,5.40
2022-10-10T03:42:26.190Z,5.50
2022-10-10T03:43:57.957Z,5.50
2022-10-10T03:45:30.662Z,6.13
2022-10-10T03:47:02.389Z,5.65
2022-10-10T03:48:35.107Z,5.72
2022-10-10T03:50:09.541Z,6.07
2022-10-10T03:51:42.392Z,6.43
2022-10-10T03:53:15.076Z,5.90
2022-10-10T03:54:46.818Z,6.45
2022-10-10T03:56:19.502Z,6.78
2022-10-10T03:57:51.276Z,6.75
2022-10-10T03:59:23.990Z,6.18
2022-10-10T04:00:57.037Z,7.10
2022-10-10T04:02:29.794Z,7.18
2022-10-10T04:04:02.511Z,5.85
2022-10-10T04:05:38.675Z,6.07
2022-10-10T04:07:10.431Z,6.30
2022-10-10T04:08:43.121Z,6.10
2022-10-10T04:10:15.959Z,5.70
2022-10-10T04:11:48.672Z,5.72
2022-10-10T04:13:22.533Z,6.05
2022-10-10T04:14:55.212Z,6.20
2022-10-10T04:16:27.947Z,5.80
2022-10-10T04:18:00.898Z,5.68
2022-10-10T04:19:33.624Z,5.72
2022-10-10T04:21:07.961Z,7.30
2022-10-10T04:22:40.848Z,6.10
2022-10-10T04:24:13.625Z,6.28
2022-10-10T04:25:47.883Z,6.05
2022-10-10T04:27:19.677Z,6.60
2022-10-10T04:28:52.425Z,5.72
2022-10-10T04:30:24.195Z,5.60
2022-10-10T04:31:56.900Z,6.47
2022-10-10T04:33:29.662Z,6.10
2022-10-10T04:35:01.575Z,6.10
2022-10-10T04:36:35.644Z,6.57
2022-10-10T04:38:07.715Z,6.22
2022-10-10T04:39:40.437Z,5.90
2022-10-10T04:41:13.191Z,6.10
2022-10-10T04:42:44.934Z,6.50
2022-10-10T04:44:17.744Z,6.28
2022-10-10T04:45:50.524Z,6.65
2022-10-10T04:47:23.293Z,6.50
2022-10-10T04:48:55.976Z,7.00
2022-10-10T04:50:28.793Z,7.07
2022-10-10T04:52:02.861Z,7.30
2022-10-10T04:53:35.577Z,7.10
2022-10-10T04:55:08.817Z,6.80
2022-10-10T04:56:42.470Z,7.20
2022-10-10T04:58:15.322Z,7.00
2022-10-10T04:59:47.079Z,6.95
2022-10-10T05:01:19.897Z,6.18
2022-10-10T05:02:52.924Z,6.80
2022-10-10T05:04:25.730Z,7.20
2022-10-10T05:05:58.440Z,6.72
2022-10-10T05:07:32.524Z,7.03
2022-10-10T05:09:05.360Z,7.10
2022-10-10T05:10:38.877Z,6.97
2022-10-10T05:12:11.591Z,7.38
2022-10-10T05:13:44.295Z,7.50
2022-10-10T05:15:17.435Z,6.55
2022-10-10T05:16:50.131Z,6.18
2022-10-10T05:18:22.894Z,6.60
2022-10-10T05:19:55.603Z,6.40
2022-10-10T05:21:28.403Z,6.15
2022-10-10T05:23:02.488Z,5.88
2022-10-10T05:24:35.599Z,7.07
2022-10-10T05:26:08.964Z,7.13
2022-10-10T05:27:42.092Z,7.78
2022-10-10T05:29:14.807Z,7.78
2022-10-10T05:30:47.501Z,7.30
2022-10-10T05:32:19.539Z,6.97
2022-10-10T05:33:52.256Z,7.75
2022-10-10T05:35:24.939Z,7.32
2022-10-10T05:36:57.992Z,7.57
2022-10-10T05:38:32.062Z,7.53
2022-10-10T05:40:06.097Z,6.65
2022-10-10T05:41:38.813Z,7.10
2022-10-10T05:43:11.756Z,6.93
2022-10-10T05:44:44.458Z,6.68
2022-10-10T05:46:17.308Z,6.18
2022-10-10T05:47:50.014Z,6.65
2022-10-10T05:49:22.724Z,6.60
2022-10-10T05:50:57.736Z,5.65
2022-10-10T05:52:31.079Z,6.38
2022-10-10T05:54:06.312Z,6.05
2022-10-10T05:55:39.041Z,5.88
2022-10-10T05:57:16.253Z,5.15
2022-10-10T05:58:50.128Z,6.45
2022-10-10T06:00:23.092Z,6.38
2022-10-10T06:01:55.827Z,6.38
2022-10-10T06:03:28.606Z,6.45
2022-10-10T06:05:00.423Z,7.05
2022-10-10T06:06:33.324Z,6.65
2022-10-10T06:08:11.600Z,6.57
2022-10-10T06:09:46.414Z,6.10
2022-10-10T06:11:20.554Z,6.80
2022-10-10T06:12:53.836Z,7.57
2022-10-10T06:14:26.823Z,7.10
2022-10-10T06:15:59.599Z,7.30
2022-10-10T06:17:32.890Z,7.75
2022-10-10T06:19:05.697Z,8.02
2022-10-10T06:20:39.346Z,8.30
2022-10-10T06:22:12.164Z,7.88
2022-10-10T06:23:45.127Z,7.35
2022-10-10T06:25:38.898Z,8.00
2022-10-10T06:27:12.268Z,7.45
2022-10-10T06:28:45.273Z,7.03
2022-10-10T06:30:18.156Z,7.50
2022-10-10T06:31:50.887Z,6.90
2022-10-10T06:33:23.616Z,6.88
2022-10-10T06:34:56.749Z,6.97
2022-10-10T06:36:29.649Z,7.00
2022-10-10T06:38:02.729Z,6.93
2022-10-10T06:39:35.665Z,6.60
2022-10-10T06:41:10.356Z,6.75
2022-10-10T06:42:43.069Z,7.38
2022-10-10T06:44:17.778Z,6.90
2022-10-10T06:45:52.099Z,7.53
2022-10-10T06:47:25.160Z,7.25
2022-10-10T06:48:58.041Z,8.02
2022-10-10T06:50:30.864Z,7.45
2022-10-10T06:52:03.859Z,7.70
2022-10-10T06:53:36.995Z,8.20
2022-10-10T06:55:10.221Z,8.20
2022-10-10T06:56:44.298Z,8.65
2022-10-10T06:58:16.055Z,8.20
2022-10-10T06:59:48.792Z,7.80
2022-10-10T07:01:24.705Z,8.20
2022-10-10T07:02:57.446Z,9.07
2022-10-10T07:04:30.175Z,8.63
2022-10-10T07:06:04.085Z,8.27
2022-10-10T07:07:37.925Z,7.70
2022-10-10T07:09:10.658Z,8.18
2022-10-10T07:10:43.566Z,9.05
2022-10-10T07:12:17.647Z,8.90
2022-10-10T07:13:53.586Z,9.05
2022-10-10T07:15:26.409Z,8.75
2022-10-10T07:16:59.179Z,8.40
2022-10-10T07:18:32.626Z,7.95
2022-10-10T07:20:06.355Z,8.90
2022-10-10T07:21:39.084Z,8.15
2022-10-10T07:23:12.082Z,9.90
2022-10-10T07:24:44.805Z,9.20
2022-10-10T07:26:20.929Z,9.02
2022-10-10T07:27:55.020Z,9.07
2022-10-10T07:29:30.254Z,9.60
2022-10-10T07:31:05.821Z,8.82
2022-10-10T07:32:38.556Z,8.10
2022-10-10T07:34:11.274Z,8.35
2022-10-10T07:35:44.093Z,8.02
2022-10-10T07:37:16.784Z,7.90
2022-10-10T07:38:51.926Z,7.32
2022-10-10T07:40:25.482Z,7.25
2022-10-10T07:41:58.181Z,8.00
2022-10-10T07:43:32.247Z,8.73
2022-10-10T07:45:05.843Z,7.70
2022-10-10T07:46:38.730Z,7.50
2022-10-10T07:48:11.468Z,7.33
2022-10-10T07:49:44.197Z,7.30
2022-10-10T07:51:17.677Z,6.70
2022-10-10T07:52:50.379Z,6.90
2022-10-10T07:54:23.325Z,6.73
2022-10-10T07:55:56.031Z,7.40
2022-10-10T07:57:28.851Z,7.27
2022-10-10T07:59:03.660Z,7.30
2022-10-10T08:00:37.411Z,7.40
2022-10-10T08:02:11.036Z,6.67
2022-10-10T08:03:44.507Z,7.53
2022-10-10T08:05:17.320Z,7.63
2022-10-10T08:06:50.086Z,6.73
2022-10-10T08:08:22.936Z,7.40
2022-10-10T08:09:55.735Z,7.57
2022-10-10T08:11:28.517Z,7.40
2022-10-10T08:13:01.270Z,7.38
2022-10-10T08:14:35.337Z,7.60
2022-10-10T08:16:08.113Z,6.63
2022-10-10T08:17:40.826Z,6.90
2022-10-10T08:21:00.074Z,6.47
2022-10-10T08:22:33.042Z,6.10
2022-10-10T08:24:06.297Z,6.50
2022-10-10T08:25:39.257Z,6.70
2022-10-10T08:27:11.965Z,6.10
2022-10-10T08:28:45.520Z,6.47
2022-10-10T08:30:19.653Z,6.17
2022-10-10T08:31:52.342Z,6.33
2022-10-10T08:33:27.665Z,6.00
2022-10-10T08:35:00.394Z,6.63
2022-10-10T08:36:33.109Z,6.17
2022-10-10T08:38:06.069Z,6.33
2022-10-10T08:39:38.854Z,6.93
2022-10-10T08:41:15.647Z,6.27
2022-10-10T08:42:53.079Z,6.50
2022-10-10T08:44:31.295Z,5.80
2022-10-10T08:46:11.513Z,6.30
2022-10-10T08:47:49.986Z,6.10
2022-10-10T08:49:27.922Z,6.47
2022-10-10T08:51:07.218Z,6.80
2022-10-10T08:52:47.917Z,6.63
2022-10-10T08:54:23.070Z,6.67
2022-10-10T08:55:56.823Z,6.20
2022-10-10T08:57:33.350Z,6.23
2022-10-10T08:59:11.262Z,6.80
2022-10-10T09:00:48.284Z,6.67
2022-10-10T09:02:44.003Z,7.00
2022-10-10T09:04:23.261Z,6.80
2022-10-10T09:06:07.973Z,6.63
2022-10-10T09:07:55.681Z,6.57
2022-10-10T09:09:35.333Z,6.77
2022-10-10T09:11:21.111Z,6.83
2022-10-10T09:13:03.680Z,6.77
2022-10-10T09:14:44.528Z,6.97
2022-10-10T09:16:24.523Z,6.63
2022-10-10T09:18:06.792Z,6.70
2022-10-10T09:19:50.181Z,7.47
2022-10-10T09:21:26.328Z,7.23
2022-10-10T09:23:02.981Z,7.13
2022-10-10T09:24:43.525Z,7.40
2022-10-10T09:26:20.510Z,6.87
2022-10-10T09:28:01.045Z,7.10
2022-10-10T09:29:39.005Z,6.97
2022-10-10T09:31:18.466Z,6.97
2022-10-10T09:32:55.979Z,6.87
2022-10-10T09:34:36.081Z,6.73
2022-10-10T09:36:13.815Z,6.73
2022-10-10T09:37:49.620Z,6.80
2022-10-10T09:39:29.696Z,6.97
2022-10-10T09:41:06.368Z,6.83
2022-10-10T09:42:41.185Z,6.80
2022-10-10T09:44:16.143Z,6.87
2022-10-10T09:45:53.393Z,6.70
2022-10-10T09:47:26.211Z,6.97
2022-10-10T09:48:59.036Z,7.20
2022-10-10T09:50:33.244Z,6.73
2022-10-10T09:52:24.041Z,6.90
2022-10-10T09:53:56.763Z,6.27
2022-10-10T09:55:35.107Z,6.70
2022-10-10T09:57:15.985Z,6.87
2022-10-10T09:58:51.709Z,6.83
2022-10-10T10:00:29.673Z,6.60
2022-10-10T10:02:03.997Z,6.37
2022-10-10T10:03:36.765Z,6.17
2022-10-10T10:05:24.764Z,6.43
2022-10-10T10:07:08.840Z,6.53
2022-10-10T10:08:42.870Z,6.10
2022-10-10T10:10:21.529Z,6.10
2022-10-10T10:11:57.912Z,6.03
2022-10-10T10:13:33.306Z,6.37
2022-10-10T10:15:17.012Z,6.10
2022-10-10T10:16:49.757Z,5.50
2022-10-10T10:18:27.628Z,6.57
2022-10-10T10:20:00.345Z,6.00
2022-10-10T10:21:33.234Z,6.00
2022-10-10T10:23:24.454Z,6.60
2022-10-10T10:24:57.204Z,6.30
2022-10-10T10:26:43.683Z,6.77
2022-10-10T10:28:19.852Z,6.50
2022-10-10T10:29:54.137Z,6.30
2022-10-10T10:31:52.494Z,6.77
2022-10-10T10:33:37.464Z,6.10
2022-10-10T10:35:25.489Z,6.07
2022-10-10T10:37:10.362Z,5.57
2022-10-10T10:38:53.047Z,5.90
2022-10-10T10:40:31.875Z,5.93
2022-10-10T10:42:18.436Z,6.30
2022-10-10T10:44:15.860Z,6.20
2022-10-10T10:45:57.855Z,6.70
2022-10-10T10:47:42.220Z,7.47
2022-10-10T10:49:18.763Z,6.17
2022-10-10T10:50:56.458Z,6.40
2022-10-10T10:52:46.809Z,6.80
2022-10-10T10:54:39.546Z,6.10
2022-10-10T10:56:23.488Z,5.40
2022-10-10T11:00:26.146Z,5.60
2022-10-10T11:02:31.510Z,5.43
2022-10-10T11:05:24.973Z,6.17
2022-10-10T11:06:42.123Z,6.83
2022-10-10T11:08:47.038Z,6.10
2022-10-10T11:10:28.896Z,6.00
2022-10-10T11:12:15.348Z,6.20
2022-10-10T11:13:55.882Z,5.90
2022-10-10T11:16:01.406Z,6.10
2022-10-10T11:17:37.251Z,6.10
2022-10-10T11:19:19.770Z,6.07
2022-10-10T11:20:59.418Z,6.23
2022-10-10T11:22:36.299Z,6.47
2022-10-10T11:24:13.702Z,6.40
2022-10-10T11:25:53.201Z,6.20
2022-10-10T11:27:30.890Z,6.00
2022-10-10T11:29:06.897Z,6.27
2022-10-10T11:30:45.446Z,6.13
2022-10-10T11:32:24.269Z,6.13
2022-10-10T11:34:01.753Z,5.57
2022-10-10T11:35:41.602Z,5.37
2022-10-10T11:37:19.977Z,6.20
2022-10-10T11:38:58.460Z,6.00
2022-10-10T11:40:42.249Z,5.93
2022-10-10T11:42:19.143Z,5.43
2022-10-10T11:43:57.162Z,5.83
2022-10-10T11:45:35.387Z,5.63
2022-10-10T11:47:14.686Z,5.77
2022-10-10T11:48:55.268Z,5.53
2022-10-10T11:50:30.538Z,5.20
2022-10-10T11:52:33.672Z,5.77
2022-10-10T11:54:14.195Z,5.10
2022-10-10T11:55:53.881Z,5.10
2022-10-10T11:57:36.124Z,4.80
2022-10-10T11:59:15.530Z,5.03
2022-10-10T12:00:53.778Z,5.30
2022-10-10T12:02:31.725Z,5.17
2022-10-10T12:04:05.043Z,4.93
2022-10-10T12:05:40.374Z,4.50
2022-10-10T12:07:18.968Z,4.60
2022-10-10T12:08:58.356Z,4.60
2022-10-10T12:10:36.127Z,4.77
2022-10-10T12:12:14.285Z,4.53
2022-10-10T12:13:53.740Z,4.47
2022-10-10T12:15:29.184Z,4.57
2022-10-10T12:17:02.497Z,4.20
2022-10-10T12:18:42.029Z,4.63
2022-10-10T12:20:34.092Z,4.33
2022-10-10T12:22:08.291Z,4.37
2022-10-10T12:23:43.202Z,6.00
2022-10-10T12:25:36.159Z,4.47
2022-10-10T12:27:29.113Z,4.20
2022-10-10T12:29:06.674Z,4.00
2022-10-10T12:30:59.873Z,4.00
2022-10-10T12:32:42.615Z,4.47
2022-10-10T12:34:38.277Z,3.90
2022-10-10T12:37:00.457Z,4.00
2022-10-10T12:38:34.824Z,4.07
2022-10-10T12:40:31.497Z,3.97
2022-10-10T12:42:04.394Z,3.80
2022-10-10T12:43:52.276Z,3.53
2022-10-10T12:45:58.713Z,3.80
2022-10-10T12:48:03.830Z,4.40
2022-10-10T12:49:36.580Z,3.80
2022-10-10T12:51:20.132Z,3.87
2022-10-10T12:52:56.314Z,3.70
2022-10-10T12:54:32.696Z,3.67
2022-10-10T12:56:05.887Z,3.80
2022-10-10T12:57:44.193Z,3.93
2022-10-10T12:59:20.943Z,4.00
2022-10-10T13:00:56.122Z,3.80
2022-10-10T13:02:30.311Z,4.00
2022-10-10T13:04:03.456Z,3.83
2022-10-10T13:05:40.304Z,3.70
2022-10-10T13:07:17.471Z,3.73
2022-10-10T13:08:52.825Z,3.80
2022-10-10T13:10:27.794Z,4.20
2022-10-10T13:12:02.546Z,3.77
2022-10-10T13:13:36.028Z,3.77
2022-10-10T13:15:20.137Z,3.90
2022-10-10T13:16:52.971Z,3.80
2022-10-10T13:18:38.359Z,3.97
2022-10-10T13:20:34.377Z,3.87
2022-10-10T13:22:08.304Z,3.80
2022-10-10T13:23:43.728Z,3.60
2022-10-10T13:25:19.551Z,3.30
2022-10-10T13:26:53.832Z,3.30
2022-10-10T13:28:26.652Z,3.47
2022-10-10T13:29:59.906Z,3.20
2022-10-10T13:31:32.944Z,3.77
2022-10-10T13:33:12.782Z,3.63
2022-10-10T13:34:49.924Z,3.60
2022-10-10T13:36:23.385Z,3.13
2022-10-10T13:37:57.785Z,3.57
2022-10-10T13:39:33.782Z,3.80
2022-10-10T13:41:07.024Z,3.30
2022-10-10T13:42:41.233Z,3.77
2022-10-10T13:44:15.978Z,3.37
2022-10-10T13:45:56.222Z,3.30
2022-10-10T13:47:49.657Z,3.73
2022-10-10T13:49:27.439Z,3.40
2022-10-10T13:51:07.970Z,3.73
2022-10-10T13:52:41.933Z,3.87
2022-10-10T13:54:37.264Z,3.63
2022-10-10T13:56:14.872Z,3.70
2022-10-10T13:57:47.875Z,4.13
2022-10-10T13:59:21.919Z,3.90
2022-10-10T14:00:59.223Z,4.13
2022-10-10T14:02:35.297Z,4.10
2022-10-10T14:04:18.935Z,3.70
2022-10-10T14:05:51.682Z,5.70
2022-10-10T14:07:27.180Z,4.13
2022-10-10T14:09:09.713Z,3.80
2022-10-10T14:10:42.556Z,3.97
2022-10-10T14:12:20.058Z,4.17
2022-10-10T14:13:58.375Z,4.40
2022-10-10T14:15:35.365Z,4.27
2022-10-10T14:17:09.405Z,4.23
2022-10-10T14:18:42.183Z,4.30
2022-10-10T14:20:15.063Z,4.50
2022-10-10T14:21:47.875Z,4.40
2022-10-10T14:23:21.993Z,4.60
2022-10-10T14:24:54.724Z,4.10
2022-10-10T14:26:27.446Z,4.33
2022-10-10T14:27:59.310Z,4.23
2022-10-10T14:29:32.086Z,4.40
2022-10-10T14:31:05.325Z,4.37
2022-10-10T14:32:38.297Z,4.37
2022-10-10T14:34:11.548Z,4.10
2022-10-10T14:35:44.621Z,4.47
2022-10-10T14:37:23.828Z,4.40
2022-10-10T14:38:57.897Z,3.73
2022-10-10T14:40:32.643Z,4.60
2022-10-10T14:42:12.048Z,4.60
2022-10-10T14:43:46.141Z,4.50
2022-10-10T14:45:19.218Z,5.30
2022-10-10T14:46:51.942Z,4.50
2022-10-10T14:48:24.731Z,4.40
2022-10-10T14:49:57.908Z,4.60
2022-10-10T14:51:34.288Z,4.40
2022-10-10T14:53:07.980Z,4.77
2022-10-10T14:54:42.248Z,4.87
2022-10-10T14:56:15.052Z,4.93
2022-10-10T14:57:47.909Z,4.30
2022-10-10T14:59:46.328Z,4.37
2022-10-10T15:01:14.445Z,4.70
2022-10-10T15:02:47.638Z,5.00
2022-10-10T15:04:19.405Z,4.40
2022-10-10T15:05:52.113Z,4.77
2022-10-10T15:07:24.885Z,4.77
2022-10-10T15:08:57.616Z,4.97
2022-10-10T15:10:34.242Z,4.70
2022-10-10T15:12:07.810Z,4.23
2022-10-10T15:13:41.340Z,4.53
2022-10-10T15:15:15.127Z,4.17
2022-10-10T15:16:47.844Z,5.37
2022-10-10T15:18:49.310Z,5.13
2022-10-10T15:20:14.436Z,4.27
2022-10-10T15:21:47.141Z,4.20
2022-10-10T15:23:19.893Z,4.60
2022-10-10T15:24:52.626Z,4.40
2022-10-10T15:26:26.725Z,4.00
2022-10-10T15:27:59.468Z,4.20
2022-10-10T15:29:32.321Z,3.90
2022-10-10T15:31:05.661Z,4.13
2022-10-10T15:32:40.320Z,3.90
2022-10-10T15:34:14.683Z,4.00
2022-10-10T15:36:07.896Z,3.87
2022-10-10T15:37:40.155Z,4.00
2022-10-10T15:39:13.102Z,3.80
2022-10-10T15:40:45.784Z,3.73
2022-10-10T15:42:23.162Z,4.00
2022-10-10T15:43:56.221Z,4.80
2022-10-10T15:45:51.387Z,3.93
2022-10-10T15:47:21.981Z,3.43
2022-10-10T15:48:55.222Z,3.30
2022-10-10T15:50:28.029Z,4.00
2022-10-10T15:51:59.792Z,3.80
2022-10-10T15:53:32.497Z,4.20
2022-10-10T15:55:06.877Z,4.00
2022-10-10T15:56:39.739Z,3.97
2022-10-10T15:58:14.432Z,4.40
2022-10-10T15:59:47.686Z,3.87
2022-10-10T16:01:21.371Z,3.90
2022-10-10T16:02:54.117Z,3.53
2022-10-10T16:04:27.259Z,3.93
2022-10-10T16:06:03.504Z,3.83
2022-10-10T16:07:45.358Z,3.93
2022-10-10T16:09:29.410Z,3.97
2022-10-10T16:11:06.069Z,3.90
2022-10-10T16:12:38.793Z,3.80
2022-10-10T16:14:12.870Z,3.93
2022-10-10T16:15:45.576Z,3.70
2022-10-10T16:17:22.945Z,4.10
2022-10-10T16:18:55.984Z,3.27
2022-10-10T16:20:28.847Z,3.57
2022-10-10T16:22:01.602Z,3.47
2022-10-10T16:23:34.376Z,3.77
2022-10-10T16:25:21.993Z,4.03
2022-10-10T16:26:55.545Z,4.33
2022-10-10T16:28:28.372Z,4.00
2022-10-10T16:30:02.532Z,3.80
2022-10-10T16:31:38.812Z,4.03
2022-10-10T16:33:11.655Z,6.10
2022-10-10T16:34:44.398Z,5.63
2022-10-10T16:36:19.773Z,7.23
2022-10-10T16:37:52.532Z,7.20
2022-10-10T16:39:25.281Z,9.40
2022-10-10T16:41:02.926Z,9.50
2022-10-10T16:42:35.839Z,14.00
2022-10-10T16:44:08.593Z,12.17
2022-10-10T16:45:46.116Z,9.10
2022-10-10T16:47:18.865Z,9.43
2022-10-10T16:48:51.845Z,4.80
2022-10-10T16:50:24.585Z,3.37
2022-10-10T16:51:57.280Z,3.43
2022-10-10T16:53:30.521Z,4.13
2022-10-10T16:55:03.278Z,3.43
2022-10-10T16:56:36.433Z,3.50
2022-10-10T16:58:09.861Z,3.43
2022-10-10T16:59:42.581Z,3.47
2022-10-10T17:01:19.362Z,3.67
2022-10-10T17:02:52.175Z,3.80
2022-10-10T17:04:24.909Z,3.97
2022-10-10T17:06:03.809Z,4.10
2022-10-10T17:07:36.786Z,4.73
2022-10-10T17:09:11.424Z,4.73
2022-10-10T17:10:45.065Z,4.07
2022-10-10T17:12:17.847Z,4.13
2022-10-10T17:13:51.419Z,5.33
2022-10-10T17:15:24.144Z,4.60
2022-10-10T17:17:14.066Z,4.77
2022-10-10T17:18:47.480Z,5.60
2022-10-10T17:20:20.294Z,5.10
2022-10-10T17:21:53.004Z,4.63
2022-10-10T17:23:25.740Z,5.43
2022-10-10T17:24:58.509Z,5.63
2022-10-10T17:26:31.236Z,5.67
2022-10-10T17:28:03.992Z,5.40
2022-10-10T17:29:36.722Z,6.03
2022-10-10T17:31:12.240Z,5.87
2022-10-10T17:32:46.301Z,6.00
2022-10-10T17:34:19.047Z,5.77
2022-10-10T17:35:52.060Z,6.97
2022-10-10T17:37:24.981Z,6.80
2022-10-10T17:39:00.070Z,5.33
2022-10-10T17:40:32.812Z,5.70
2022-10-10T17:42:05.845Z,5.70
2022-10-10T17:43:38.955Z,5.00
2022-10-10T17:45:12.144Z,5.73
2022-10-10T17:46:45.623Z,5.27
2022-10-10T17:48:19.947Z,5.17
2022-10-10T17:49:52.776Z,5.37
2022-10-10T17:51:25.577Z,5.50
2022-10-10T17:52:58.284Z,5.30
2022-10-10T17:54:31.015Z,5.77
2022-10-10T17:56:04.394Z,5.87
2022-10-10T17:57:37.496Z,5.60
2022-10-10T17:59:10.320Z,5.60
2022-10-10T18:00:43.238Z,5.50
2022-10-10T18:02:17.547Z,5.00
2022-10-10T18:03:52.095Z,5.10
2022-10-10T18:05:24.825Z,5.70
2022-10-10T18:06:57.536Z,5.50
2022-10-10T18:08:30.278Z,5.50
2022-10-10T18:10:03.042Z,5.70
2022-10-10T18:11:35.774Z,6.10
2022-10-10T18:13:09.759Z,5.43
2022-10-10T18:14:42.483Z,5.20
2022-10-10T18:16:16.817Z,5.80
2022-10-10T18:17:49.574Z,6.40
2022-10-10T18:19:23.636Z,5.30
2022-10-10T18:21:01.516Z,5.23
2022-10-10T18:22:34.780Z,5.80
2022-10-10T18:24:08.298Z,6.27
2022-10-10T18:25:41.030Z,5.93
2022-10-10T18:27:13.732Z,5.30
2022-10-10T18:28:46.892Z,5.47
2022-10-10T18:30:19.764Z,5.33
2022-10-10T18:31:52.657Z,5.43
2022-10-10T18:33:25.477Z,5.40
2022-10-10T18:34:59.708Z,5.33
2022-10-10T18:36:34.664Z,5.20
2022-10-10T18:38:07.377Z,4.90
2022-10-10T18:39:41.624Z,5.73
2022-10-10T18:41:16.265Z,5.40
2022-10-10T18:42:48.968Z,5.80
2022-10-10T18:44:21.780Z,5.43
2022-10-10T18:45:59.889Z,5.50
2022-10-10T18:47:32.646Z,5.00
2022-10-10T18:49:08.851Z,5.10
2022-10-10T18:50:42.884Z,5.33
2022-10-10T18:52:15.717Z,4.97
2022-10-10T18:53:48.973Z,4.87
2022-10-10T18:55:21.691Z,5.17
2022-10-10T18:56:54.590Z,4.87
2022-10-10T18:58:27.367Z,5.07
2022-10-10T19:00:00.095Z,4.93
2022-10-10T19:01:36.190Z,5.00
2022-10-10T19:03:09.789Z,4.70
2022-10-10T19:04:43.737Z,5.17
2022-10-10T19:06:18.293Z,5.03
2022-10-10T19:07:51.109Z,4.73
2022-10-10T19:09:23.986Z,5.60
2022-10-10T19:10:56.691Z,4.90
2022-10-10T19:12:29.408Z,5.40
2022-10-10T19:14:04.153Z,4.90
2022-10-10T19:15:36.866Z,6.53
2022-10-10T19:17:09.795Z,5.40
2022-10-10T19:18:42.765Z,6.40
2022-10-10T19:20:15.765Z,6.30
2022-10-10T19:21:50.893Z,6.03
2022-10-10T19:23:23.607Z,6.00
2022-10-10T19:24:56.412Z,6.63
2022-10-10T19:26:33.090Z,5.80
2022-10-10T19:28:06.779Z,6.37
2022-10-10T19:29:39.537Z,5.43
2022-10-10T19:31:13.709Z,5.27
2022-10-10T19:34:24.646Z,6.30
2022-10-10T19:35:59.996Z,5.30
2022-10-10T19:37:34.134Z,5.57
2022-10-10T19:39:07.289Z,5.43
2022-10-10T19:40:44.876Z,6.67
2022-10-10T19:42:17.601Z,6.87
2022-10-10T19:43:52.733Z,7.00
2022-10-10T19:45:25.557Z,7.33
2022-10-10T19:47:00.136Z,8.13
2022-10-10T19:48:33.651Z,6.60
2022-10-10T19:50:07.287Z,6.90
2022-10-10T19:51:40.087Z,7.03
2022-10-10T19:53:17.373Z,6.63
2022-10-10T19:54:50.097Z,6.53
2022-10-10T19:56:25.227Z,5.53
2022-10-10T19:57:57.979Z,7.07
2022-10-10T19:59:30.856Z,6.67
2022-10-10T20:01:06.715Z,5.93
2022-10-10T20:02:39.474Z,6.60
2022-10-10T20:04:12.417Z,6.40
2022-10-10T20:05:44.357Z,6.10
2022-10-10T20:07:17.170Z,6.00
2022-10-10T20:08:51.334Z,6.77
2022-10-10T20:10:24.201Z,5.90
2022-10-10T20:11:56.993Z,5.30
2022-10-10T20:13:29.928Z,5.20
2022-10-10T20:15:02.728Z,6.77
2022-10-10T20:16:35.467Z,5.37
2022-10-10T20:18:08.363Z,5.57
2022-10-10T20:19:41.129Z,5.63
2022-10-10T20:21:17.600Z,5.87
2022-10-10T20:22:50.323Z,5.70
2022-10-10T20:24:24.420Z,6.30
2022-10-10T20:25:57.167Z,5.87
2022-10-10T20:27:31.424Z,5.40
2022-10-10T20:29:04.930Z,5.20
2022-10-10T20:30:41.898Z,5.67
2022-10-10T20:32:14.631Z,5.27
2022-10-10T20:33:47.536Z,5.43
2022-10-10T20:35:20.628Z,5.87
2022-10-10T20:36:53.645Z,5.40
2022-10-10T20:38:26.377Z,5.47
2022-10-10T20:40:00.470Z,4.87
2022-10-10T20:41:35.077Z,5.60
2022-10-10T20:43:08.140Z,6.07
2022-10-10T20:44:40.866Z,5.90
2022-10-10T20:46:14.533Z,5.80
2022-10-10T20:47:47.279Z,5.57
2022-10-10T20:49:21.486Z,6.03
2022-10-10T20:50:54.194Z,6.20
2022-10-10T20:52:26.948Z,5.87
2022-10-10T20:54:01.751Z,6.23
2022-10-10T20:55:35.911Z,5.33
2022-10-10T20:57:08.630Z,6.00
2022-10-10T20:58:41.812Z,5.27
2022-10-10T21:00:15.748Z,6.20
2022-10-10T21:01:48.597Z,4.60
2022-10-10T21:03:21.400Z,4.67
2022-10-10T21:04:54.099Z,5.50
2022-10-10T21:06:28.835Z,5.27
2022-10-10T21:08:01.668Z,5.60
2022-10-10T21:09:34.550Z,5.37
2022-10-10T21:11:10.375Z,5.67
2022-10-10T21:12:43.211Z,5.63
2022-10-10T21:14:15.957Z,5.87
2022-10-10T21:15:47.721Z,5.67
2022-10-10T21:17:20.684Z,6.37
2022-10-10T21:18:57.843Z,6.17
2022-10-10T21:20:31.013Z,6.03